Time;durP1;ratioP1;P1;durP2;ratioP2;P2;SDS_P1;SDS_P2;PMS_P1;PMS_P2;Temp;Humidity;BMP_temperature;BMP_pressure;BME280_temperature;BME280_humidity;BME280_pressure;Samples;Min_cycle;Max_cycle;Signal;HPM_P1;HPM_P2
2022/05/26 00:01:16;;;;;;;;;;;13.20;74.50;;;;;;5089628;28;19923;-73
2022/05/26 00:03:43;;;;;;;;;;;13.20;74.60;;;;;;5071642;28;19913;-70
2022/05/26 00:06:11;;;;;;;;;;;13.30;74.90;;;;;;5089400;28;19915;-73
2022/05/26 00:08:38;;;;;;;;;;;13.30;74.90;;;;;;5089377;28;19908;-76
2022/05/26 00:11:08;;;;;;;;;;;13.30;75.00;;;;;;5071052;28;19920;-74
2022/05/26 00:13:34;;;;;;;;;;;13.40;75.20;;;;;;5089211;28;19934;-73
2022/05/26 00:16:00;;;;;;;;;;;13.30;75.40;;;;;;5089238;28;20026;-71
2022/05/26 00:18:25;;;;;;;;;;;13.30;75.70;;;;;;5089264;28;19999;-72
2022/05/26 00:20:51;;;;;;;;;;;13.30;75.80;;;;;;5089085;28;19916;-73
2022/05/26 00:23:16;;;;;;;;;;;13.30;75.90;;;;;;5089172;28;19913;-72
2022/05/26 00:25:42;;;;;;;;;;;13.30;76.20;;;;;;5088999;28;19957;-71
2022/05/26 00:28:08;;;;;;;;;;;13.30;76.70;;;;;;5089014;28;19908;-73
2022/05/26 00:30:33;;;;;;;;;;;13.30;76.70;;;;;;5089044;28;20370;-73
2022/05/26 00:33:00;;;;;;;;;;;13.30;76.70;;;;;;5088460;28;20012;-73
2022/05/26 00:35:26;;;;;;;;;;;13.30;77.00;;;;;;5088931;28;19908;-74
2022/05/26 00:37:52;;;;;;;;;;;13.30;77.40;;;;;;5088914;28;19909;-72
2022/05/26 00:40:18;;;;;;;;;;;13.30;77.50;;;;;;5088789;28;19919;-73
2022/05/26 00:42:44;;;;;;;;;;;13.30;77.70;;;;;;5088782;28;19912;-71
2022/05/26 00:45:10;;;;;;;;;;;13.30;77.80;;;;;;5088557;28;20015;-71
2022/05/26 00:47:41;;;;;;;;;;;13.30;78.10;;;;;;5088463;28;19999;-74
2022/05/26 00:50:27;;;;;;;;;;;13.30;78.20;;;;;;5088656;28;19915;-72
2022/05/26 00:52:54;;;;;;;;;;;13.50;78.20;;;;;;5088104;28;20399;-72
2022/05/26 00:55:26;;;;;;;;;;;13.50;78.20;;;;;;5070142;28;19952;-74
2022/05/26 00:57:54;;;;;;;;;;;13.60;78.20;;;;;;5088582;28;19912;-74
2022/05/26 01:00:21;;;;;;;;;;;13.60;78.30;;;;;;5070011;28;19922;-73
2022/05/26 01:03:06;;;;;;;;;;;13.60;78.40;;;;;;5088441;28;20049;-74
2022/05/26 01:05:38;;;;;;;;;;;13.70;78.60;;;;;;5087559;28;19916;-73
2022/05/26 01:08:07;;;;;;;;;;;13.70;78.70;;;;;;5088190;28;19912;-74
2022/05/26 01:10:33;;;;;;;;;;;13.70;79.10;;;;;;5088330;28;19908;-74
2022/05/26 01:12:58;;;;;;;;;;;13.80;78.90;;;;;;5053894;28;20010;-73
2022/05/26 01:15:31;;;;;;;;;;;13.90;78.90;;;;;;5088128;28;20282;-71
2022/05/26 01:18:02;;;;;;;;;;;13.90;79.00;;;;;;5088203;28;20433;-75
2022/05/26 01:20:28;;;;;;;;;;;13.90;78.90;;;;;;5069911;28;19923;-72
2022/05/26 01:23:12;;;;;;;;;;;13.90;78.90;;;;;;5088589;28;19908;-72
2022/05/26 01:25:56;;;;;;;;;;;13.90;79.00;;;;;;5088162;28;19955;-72
2022/05/26 01:28:40;;;;;;;;;;;14.00;79.00;;;;;;5088375;28;19908;-72
2022/05/26 01:31:15;;;;;;;;;;;14.00;78.90;;;;;;5088202;28;19908;-71
2022/05/26 01:33:48;;;;;;;;;;;14.10;79.10;;;;;;5088061;28;20054;-71
2022/05/26 01:36:24;;;;;;;;;;;14.10;79.00;;;;;;5087987;28;20270;-72
2022/05/26 01:39:08;;;;;;;;;;;14.10;79.00;;;;;;5087987;28;20388;-74
2022/05/26 01:41:37;;;;;;;;;;;14.10;79.00;;;;;;5069749;28;19912;-73
2022/05/26 01:44:09;;;;;;;;;;;14.20;79.10;;;;;;5089482;28;19991;-73
2022/05/26 01:46:45;;;;;;;;;;;14.20;79.20;;;;;;5092158;28;19919;-74
2022/05/26 01:49:29;;;;;;;;;;;14.20;79.30;;;;;;5073719;28;19927;-72
2022/05/26 01:52:13;;;;;;;;;;;14.20;79.30;;;;;;5073844;28;19908;-74
2022/05/26 01:54:59;;;;;;;;;;;14.20;79.40;;;;;;5073693;28;19924;-75
2022/05/26 01:57:24;;;;;;;;;;;14.20;79.60;;;;;;5091067;28;19908;-74
2022/05/26 01:59:53;;;;;;;;;;;14.20;79.70;;;;;;5091754;28;19912;-74
2022/05/26 02:02:24;;;;;;;;;;;14.20;79.80;;;;;;5091770;28;20354;-71
2022/05/26 02:04:52;;;;;;;;;;;14.20;79.80;;;;;;5091762;28;19916;-72
2022/05/26 02:07:24;;;;;;;;;;;14.20;80.00;;;;;;5091780;28;19935;-73
2022/05/26 02:09:51;;;;;;;;;;;14.20;80.10;;;;;;5091805;28;19916;-71
2022/05/26 02:12:20;;;;;;;;;;;14.20;80.10;;;;;;5091701;28;20069;-72
2022/05/26 02:14:50;;;;;;;;;;;14.20;80.30;;;;;;5091473;28;19915;-73
2022/05/26 02:17:20;;;;;;;;;;;14.20;80.50;;;;;;5091625;28;19969;-72
2022/05/26 02:19:50;;;;;;;;;;;14.20;80.70;;;;;;5073350;28;19945;-71
2022/05/26 02:22:27;;;;;;;;;;;14.20;80.90;;;;;;5073555;28;19919;-73
2022/05/26 02:25:00;;;;;;;;;;;14.10;81.20;;;;;;5091673;28;19947;-72
2022/05/26 02:27:26;;;;;;;;;;;14.10;81.50;;;;;;5091328;28;20274;-71
2022/05/26 02:29:53;;;;;;;;;;;14.10;81.90;;;;;;5091345;28;19923;-73
2022/05/26 02:32:30;;;;;;;;;;;14.00;82.00;;;;;;5091606;28;19909;-74
2022/05/26 02:34:57;;;;;;;;;;;13.90;82.10;;;;;;5091232;28;20337;-74
2022/05/26 02:37:24;;;;;;;;;;;13.80;82.60;;;;;;5072900;28;19908;-73
2022/05/26 02:39:49;;;;;;;;;;;13.80;82.90;;;;;;5072958;28;19916;-73
2022/05/26 02:42:15;;;;;;;;;;;13.70;83.30;;;;;;5091225;28;19920;-72
2022/05/26 02:44:41;;;;;;;;;;;13.60;83.80;;;;;;5091022;28;19919;-72
2022/05/26 02:47:23;;;;;;;;;;;13.60;84.50;;;;;;5091047;28;19916;-73
2022/05/26 02:49:49;;;;;;;;;;;13.50;84.70;;;;;;5091296;28;20023;-72
2022/05/26 02:52:19;;;;;;;;;;;13.40;84.90;;;;;;5091066;28;19995;-74
2022/05/26 02:54:45;;;;;;;;;;;13.40;85.00;;;;;;5090313;28;19912;-71
2022/05/26 02:57:18;;;;;;;;;;;13.40;85.30;;;;;;5090809;28;19908;-71
2022/05/26 02:59:50;;;;;;;;;;;13.40;85.50;;;;;;5091257;28;19912;-73
2022/05/26 03:02:19;;;;;;;;;;;13.40;85.60;;;;;;5090691;28;19920;-74
2022/05/26 03:04:46;;;;;;;;;;;13.40;85.90;;;;;;5090810;28;19978;-74
2022/05/26 03:07:18;;;;;;;;;;;13.40;85.70;;;;;;5090679;28;19908;-74
2022/05/26 03:09:45;;;;;;;;;;;13.40;85.90;;;;;;5090719;28;19935;-76
2022/05/26 03:12:24;;;;;;;;;;;13.50;86.00;;;;;;5072456;28;19913;-73
2022/05/26 03:14:50;;;;;;;;;;;13.50;86.60;;;;;;5090413;28;20386;-73
2022/05/26 03:17:15;;;;;;;;;;;13.50;86.80;;;;;;5090712;28;19923;-73
2022/05/26 03:19:41;;;;;;;;;;;13.50;87.00;;;;;;5090418;28;19920;-75
2022/05/26 03:22:06;;;;;;;;;;;13.50;87.20;;;;;;5090620;28;19916;-72
2022/05/26 03:24:33;;;;;;;;;;;13.50;87.50;;;;;;5090232;28;19984;-74
2022/05/26 03:26:58;;;;;;;;;;;13.50;87.60;;;;;;5072081;28;20354;-74
2022/05/26 03:29:24;;;;;;;;;;;13.50;87.70;;;;;;5072021;28;19919;-72
2022/05/26 03:31:49;;;;;;;;;;;13.50;87.80;;;;;;5072111;28;19912;-75
2022/05/26 03:42:27;;;;;;;;;;;13.60;88.30;;;;;;5090451;28;20392;-73
2022/05/26 03:44:53;;;;;;;;;;;13.60;88.60;;;;;;5089963;28;19916;-73
2022/05/26 03:47:18;;;;;;;;;;;13.70;88.80;;;;;;5089885;28;19926;-74
2022/05/26 03:49:44;;;;;;;;;;;13.70;89.00;;;;;;5071453;28;19924;-73
2022/05/26 03:52:10;;;;;;;;;;;13.70;89.10;;;;;;5089697;28;19916;-75
2022/05/26 03:54:36;;;;;;;;;;;13.80;89.40;;;;;;5089661;28;19969;-76
2022/05/26 03:57:02;;;;;;;;;;;13.80;89.50;;;;;;5089811;28;19912;-74
2022/05/26 03:59:27;;;;;;;;;;;13.90;89.70;;;;;;5071362;28;19912;-75
2022/05/26 04:01:53;;;;;;;;;;;13.90;89.90;;;;;;5071434;28;19969;-76
2022/05/26 04:04:19;;;;;;;;;;;14.00;90.00;;;;;;5089385;28;20286;-74
2022/05/26 04:06:44;;;;;;;;;;;14.00;90.10;;;;;;5088566;28;20318;-73
2022/05/26 04:09:10;;;;;;;;;;;14.00;90.10;;;;;;5089478;28;19913;-76
2022/05/26 04:11:35;;;;;;;;;;;14.10;90.30;;;;;;5071270;28;19912;-76
2022/05/26 04:14:01;;;;;;;;;;;14.10;90.40;;;;;;5071167;28;20460;-74
2022/05/26 04:16:26;;;;;;;;;;;14.10;90.50;;;;;;5089270;28;20362;-75
2022/05/26 04:18:52;;;;;;;;;;;14.10;90.50;;;;;;5089274;28;19919;-73
2022/05/26 04:21:18;;;;;;;;;;;14.10;90.60;;;;;;5070870;28;20475;-72
2022/05/26 04:23:43;;;;;;;;;;;14.10;90.50;;;;;;5070980;28;19918;-74
2022/05/26 04:26:09;;;;;;;;;;;14.10;90.60;;;;;;5089015;28;19912;-74
2022/05/26 04:28:35;;;;;;;;;;;14.10;90.60;;;;;;5089027;28;19977;-74
2022/05/26 04:31:01;;;;;;;;;;;14.10;90.70;;;;;;5089098;28;19911;-73
2022/05/26 04:33:26;;;;;;;;;;;14.10;90.70;;;;;;5070690;28;19912;-76
2022/05/26 04:35:53;;;;;;;;;;;14.20;90.80;;;;;;5088822;28;20394;-75
2022/05/26 04:38:21;;;;;;;;;;;14.20;91.00;;;;;;5089290;28;19908;-75
2022/05/26 04:40:55;;;;;;;;;;;14.30;91.10;;;;;;5088831;28;19916;-74
2022/05/26 04:43:21;;;;;;;;;;;14.30;91.30;;;;;;5088978;28;19908;-75
2022/05/26 04:45:46;;;;;;;;;;;14.30;91.50;;;;;;5088673;28;19926;-76
2022/05/26 04:48:13;;;;;;;;;;;14.30;91.50;;;;;;5088482;28;19924;-75
2022/05/26 04:50:39;;;;;;;;;;;14.40;91.70;;;;;;5088652;28;19964;-74
2022/05/26 04:53:04;;;;;;;;;;;14.40;91.80;;;;;;5088644;28;19912;-75
2022/05/26 04:55:30;;;;;;;;;;;14.40;91.90;;;;;;5070289;28;19947;-76
2022/05/26 04:57:55;;;;;;;;;;;14.40;92.00;;;;;;5088568;28;20290;-73
2022/05/26 05:00:21;;;;;;;;;;;14.40;92.10;;;;;;5088447;28;19976;-74
2022/05/26 05:02:47;;;;;;;;;;;14.40;92.20;;;;;;5088470;28;19912;-74
2022/05/26 05:05:12;;;;;;;;;;;14.40;92.20;;;;;;5070190;28;20286;-73
2022/05/26 05:07:38;;;;;;;;;;;14.40;92.30;;;;;;5070280;28;19962;-73
2022/05/26 05:10:04;;;;;;;;;;;14.40;92.40;;;;;;5088324;28;19913;-75
2022/05/26 05:12:30;;;;;;;;;;;14.40;92.40;;;;;;5088217;28;19977;-75
2022/05/26 05:14:55;;;;;;;;;;;14.50;92.50;;;;;;5069907;28;20015;-74
2022/05/26 05:17:22;;;;;;;;;;;14.40;92.60;;;;;;5088354;28;19912;-73
2022/05/26 05:19:48;;;;;;;;;;;14.40;92.70;;;;;;5069906;28;19916;-72
2022/05/26 05:22:21;;;;;;;;;;;14.50;92.70;;;;;;5088484;28;19912;-73
2022/05/26 05:25:05;;;;;;;;;;;14.50;92.80;;;;;;5069965;28;20584;-73
2022/05/26 05:27:33;;;;;;;;;;;14.50;92.90;;;;;;5087997;28;19948;-75
2022/05/26 05:30:01;;;;;;;;;;;14.50;93.00;;;;;;5088004;28;19912;-73
2022/05/26 05:32:32;;;;;;;;;;;14.50;93.10;;;;;;5069745;28;19908;-74
2022/05/26 05:35:02;;;;;;;;;;;14.50;93.10;;;;;;5087945;28;19951;-73
2022/05/26 05:37:29;;;;;;;;;;;14.50;93.20;;;;;;5087948;28;19923;-74
2022/05/26 05:39:55;;;;;;;;;;;14.50;93.20;;;;;;5087840;28;19926;-74
2022/05/26 05:42:21;;;;;;;;;;;14.50;93.30;;;;;;5069792;28;19912;-75
2022/05/26 05:44:47;;;;;;;;;;;14.50;93.40;;;;;;5087976;28;19919;-72
2022/05/26 05:47:12;;;;;;;;;;;14.50;93.50;;;;;;5087938;28;20379;-73
2022/05/26 05:49:38;;;;;;;;;;;14.50;93.60;;;;;;5087533;28;19925;-75
2022/05/26 05:52:05;;;;;;;;;;;14.50;93.70;;;;;;5087765;28;19912;-75
2022/05/26 05:54:31;;;;;;;;;;;14.50;93.80;;;;;;5087709;28;19934;-74
2022/05/26 05:56:57;;;;;;;;;;;14.50;93.80;;;;;;5069454;28;19912;-75
2022/05/26 05:59:23;;;;;;;;;;;14.50;93.90;;;;;;5087494;28;20212;-72
2022/05/26 06:01:49;;;;;;;;;;;14.60;94.00;;;;;;5087376;28;19912;-73
2022/05/26 06:04:14;;;;;;;;;;;14.60;94.00;;;;;;5087937;28;20410;-72
2022/05/26 06:06:42;;;;;;;;;;;14.60;94.10;;;;;;5087617;28;19920;-73
2022/05/26 06:09:08;;;;;;;;;;;14.70;94.20;;;;;;5087838;28;19912;-75
2022/05/26 06:11:34;;;;;;;;;;;14.70;94.20;;;;;;5088546;28;20373;-74
2022/05/26 06:14:00;;;;;;;;;;;14.80;94.20;;;;;;5087886;28;19912;-73
2022/05/26 06:16:27;;;;;;;;;;;14.90;94.20;;;;;;5069264;28;20324;-74
2022/05/26 06:18:53;;;;;;;;;;;14.90;94.20;;;;;;5087248;28;20380;-72
2022/05/26 06:21:19;;;;;;;;;;;14.90;94.20;;;;;;5087254;28;20010;-71
2022/05/26 06:23:45;;;;;;;;;;;14.90;94.20;;;;;;5068748;28;20485;-71
2022/05/26 06:26:10;;;;;;;;;;;15.00;94.30;;;;;;5069149;28;19908;-72
2022/05/26 06:31:22;;;;;;;;;;;15.10;94.40;;;;;;5090617;28;20408;-73
2022/05/26 06:39:17;;;;;;;;;;;15.20;94.40;;;;;;5090818;28;19915;-73
2022/05/26 06:44:27;;;;;;;;;;;15.30;94.40;;;;;;5091278;28;19942;-75
2022/05/26 06:46:53;;;;;;;;;;;15.40;94.30;;;;;;5072779;28;19912;-71
2022/05/26 06:49:18;;;;;;;;;;;15.50;94.40;;;;;;5072444;28;19935;-73
2022/05/26 06:51:45;;;;;;;;;;;15.50;94.30;;;;;;5090532;28;19912;-71
2022/05/26 06:54:11;;;;;;;;;;;15.60;94.30;;;;;;5090319;28;19938;-72
2022/05/26 06:56:36;;;;;;;;;;;15.60;94.30;;;;;;5090398;28;19908;-72
2022/05/26 06:59:02;;;;;;;;;;;15.70;94.30;;;;;;5090479;28;19936;-74
2022/05/26 07:01:28;;;;;;;;;;;15.70;94.20;;;;;;5090985;28;20290;-72
2022/05/26 07:03:53;;;;;;;;;;;15.70;94.30;;;;;;5072306;28;19912;-72
2022/05/26 07:06:21;;;;;;;;;;;15.70;94.40;;;;;;5090685;28;19912;-72
2022/05/26 07:08:47;;;;;;;;;;;15.70;94.40;;;;;;5090151;28;20255;-75
2022/05/26 07:11:13;;;;;;;;;;;15.80;94.40;;;;;;5089910;28;19950;-73
2022/05/26 07:13:39;;;;;;;;;;;15.90;94.50;;;;;;5089857;28;19916;-73
2022/05/26 07:16:05;;;;;;;;;;;15.90;94.50;;;;;;5089979;28;20247;-72
2022/05/26 07:18:31;;;;;;;;;;;16.00;94.40;;;;;;5090207;28;19914;-71
2022/05/26 07:20:56;;;;;;;;;;;16.00;94.40;;;;;;5089844;28;20069;-72
2022/05/26 07:23:22;;;;;;;;;;;16.10;94.40;;;;;;5089967;28;19908;-72
2022/05/26 07:25:48;;;;;;;;;;;16.20;94.40;;;;;;5089755;28;19977;-72
2022/05/26 07:28:13;;;;;;;;;;;16.30;94.30;;;;;;5089732;28;20003;-75
2022/05/26 07:30:39;;;;;;;;;;;16.30;94.20;;;;;;5071575;28;20423;-73
2022/05/26 07:33:05;;;;;;;;;;;16.30;94.20;;;;;;5071550;28;19919;-75
2022/05/26 07:35:30;;;;;;;;;;;16.30;94.20;;;;;;5071429;28;19912;-74
2022/05/26 07:43:26;;;;;;;;;;;16.20;94.30;;;;;;5073887;28;19919;-74
2022/05/26 07:45:51;;;;;;;;;;;16.20;94.30;;;;;;5091106;28;19917;-72
2022/05/26 07:48:17;;;;;;;;;;;16.20;94.40;;;;;;5089253;28;20018;-75
2022/05/26 07:50:43;;;;;;;;;;;16.30;94.40;;;;;;5089154;28;20283;-74
2022/05/26 07:53:08;;;;;;;;;;;16.30;94.30;;;;;;5089234;28;19912;-75
2022/05/26 07:55:34;;;;;;;;;;;16.30;94.40;;;;;;5071423;28;19930;-71
2022/05/26 07:57:59;;;;;;;;;;;16.20;94.30;;;;;;5103271;28;19916;-74
2022/05/26 08:00:25;;;;;;;;;;;16.20;94.30;;;;;;5082923;28;20014;-73
2022/05/26 08:02:51;;;;;;;;;;;16.30;94.40;;;;;;5098746;28;20259;-73
2022/05/26 08:05:16;;;;;;;;;;;16.30;94.30;;;;;;5100958;28;20350;-72
2022/05/26 08:07:43;;;;;;;;;;;16.30;94.30;;;;;;5099331;28;19912;-71
2022/05/26 08:10:09;;;;;;;;;;;16.40;94.40;;;;;;5102906;28;19918;-73
2022/05/26 08:12:34;;;;;;;;;;;16.50;94.30;;;;;;5098169;28;19912;-72
2022/05/26 08:15:00;;;;;;;;;;;16.50;94.30;;;;;;5099801;28;19912;-74
2022/05/26 08:17:26;;;;;;;;;;;16.60;94.20;;;;;;5105468;28;20012;-74
2022/05/26 08:19:52;;;;;;;;;;;16.70;94.20;;;;;;5072198;28;19920;-73
2022/05/26 08:22:18;;;;;;;;;;;16.80;94.10;;;;;;5104356;28;19946;-74
2022/05/26 08:24:50;;;;;;;;;;;16.80;94.10;;;;;;5090490;28;19911;-72
2022/05/26 08:27:16;;;;;;;;;;;16.90;94.00;;;;;;5108437;28;19916;-73
2022/05/26 08:29:41;;;;;;;;;;;16.90;93.90;;;;;;5108678;28;19908;-73
2022/05/26 08:32:07;;;;;;;;;;;17.00;93.90;;;;;;5109012;28;19922;-74
2022/05/26 08:34:33;;;;;;;;;;;17.00;93.90;;;;;;5109109;28;19998;-73
2022/05/26 08:36:59;;;;;;;;;;;17.00;93.80;;;;;;5090432;28;20046;-74
2022/05/26 08:39:24;;;;;;;;;;;17.00;93.80;;;;;;5109246;28;19912;-74
2022/05/26 08:41:52;;;;;;;;;;;17.10;93.80;;;;;;5109042;28;19911;-74
2022/05/26 08:44:24;;;;;;;;;;;17.10;93.70;;;;;;5089622;28;19986;-74
2022/05/26 08:47:01;;;;;;;;;;;17.20;93.80;;;;;;5108037;28;19969;-73
2022/05/26 08:49:26;;;;;;;;;;;17.40;93.70;;;;;;5089180;28;20278;-73
2022/05/26 08:51:55;;;;;;;;;;;17.60;93.60;;;;;;5107684;28;19908;-72
2022/05/26 08:54:24;;;;;;;;;;;17.70;93.50;;;;;;5107713;28;19912;-72
2022/05/26 08:56:50;;;;;;;;;;;17.80;93.30;;;;;;5108669;28;19950;-74
2022/05/26 08:59:17;;;;;;;;;;;17.90;93.20;;;;;;5090947;28;19954;-72
2022/05/26 09:01:43;;;;;;;;;;;17.90;93.10;;;;;;5108984;28;19973;-72
2022/05/26 09:04:10;;;;;;;;;;;18.00;93.10;;;;;;5109058;28;19912;-72
2022/05/26 09:12:55;;;;;;;;;;;18.10;93.10;;;;;;5091168;28;19943;-73
2022/05/26 09:14:54;;;;;;;;;;;18.70;92.90;;;;;;5109151;28;19922;-74
2022/05/26 09:17:22;;;;;;;;;;;18.90;92.60;;;;;;5109352;28;19998;-72
2022/05/26 09:19:49;;;;;;;;;;;19.00;92.30;;;;;;5109169;28;20603;-73
2022/05/26 09:22:28;;;;;;;;;;;19.40;92.80;;;;;;5093159;28;20280;-75
2022/05/26 09:24:54;;;;;;;;;;;20.50;92.80;;;;;;5109053;28;19956;-73
2022/05/26 09:27:25;;;;;;;;;;;21.80;92.10;;;;;;5108948;28;19907;-72
2022/05/26 09:29:51;;;;;;;;;;;22.30;90.80;;;;;;5108648;28;19917;-73
2022/05/26 09:32:17;;;;;;;;;;;22.10;90.00;;;;;;5089834;28;19912;-72
2022/05/26 09:34:44;;;;;;;;;;;21.70;90.60;;;;;;5108037;28;20273;-72
2022/05/26 09:37:09;;;;;;;;;;;21.50;90.70;;;;;;5090389;28;19915;-71
2022/05/26 09:39:37;;;;;;;;;;;21.20;90.50;;;;;;5108959;28;20003;-72
2022/05/26 09:42:08;;;;;;;;;;;20.90;90.50;;;;;;5108700;28;19912;-71
2022/05/26 09:44:34;;;;;;;;;;;20.60;90.20;;;;;;5103009;28;19908;-72
2022/05/26 09:47:02;;;;;;;;;;;20.30;90.60;;;;;;5097041;28;19927;-73
2022/05/26 09:49:32;;;;;;;;;;;20.20;90.60;;;;;;5074712;28;19943;-72
2022/05/26 09:52:17;;;;;;;;;;;20.10;90.60;;;;;;5099167;28;20369;-71
2022/05/26 09:54:44;;;;;;;;;;;20.10;90.70;;;;;;5099037;28;19907;-72
2022/05/26 09:57:14;;;;;;;;;;;20.30;90.90;;;;;;5097468;28;20327;-72
2022/05/26 09:59:40;;;;;;;;;;;20.50;90.80;;;;;;5100165;28;19930;-71
2022/05/26 10:02:06;;;;;;;;;;;20.70;90.70;;;;;;5099352;28;19927;-72
2022/05/26 10:04:50;;;;;;;;;;;20.70;90.50;;;;;;5102053;28;19916;-73
2022/05/26 10:07:19;;;;;;;;;;;20.60;90.10;;;;;;5102734;28;19912;-72
2022/05/26 10:09:57;;;;;;;;;;;20.30;90.00;;;;;;5102449;28;19923;-74
2022/05/26 10:12:43;;;;;;;;;;;19.90;90.00;;;;;;5097473;28;20003;-73
2022/05/26 10:15:27;;;;;;;;;;;19.60;90.10;;;;;;5097536;28;19924;-72
2022/05/26 10:17:56;;;;;;;;;;;19.30;90.20;;;;;;5100204;28;19918;-72
2022/05/26 10:20:48;;;;;;;;;;;19.10;90.50;;;;;;5104433;28;19957;-73
2022/05/26 10:23:14;;;;;;;;;;;19.10;90.60;;;;;;5078778;28;20320;-73
2022/05/26 10:25:49;;;;;;;;;;;19.50;90.80;;;;;;5099757;28;19915;-74
2022/05/26 10:28:17;;;;;;;;;;;19.90;90.70;;;;;;5101048;28;19931;-72
2022/05/26 10:30:46;;;;;;;;;;;20.40;90.70;;;;;;5082881;28;19907;-73
2022/05/26 10:33:30;;;;;;;;;;;20.90;90.40;;;;;;5097271;28;19908;-72
2022/05/26 10:36:18;;;;;;;;;;;21.30;90.10;;;;;;5100719;28;19927;-73
2022/05/26 10:38:44;;;;;;;;;;;21.60;88.10;;;;;;5075197;28;19912;-73
2022/05/26 10:41:22;;;;;;;;;;;21.60;87.50;;;;;;5101532;28;19990;-75
2022/05/26 10:43:48;;;;;;;;;;;21.60;87.30;;;;;;5091768;28;19920;-75
2022/05/26 10:46:15;;;;;;;;;;;21.50;86.70;;;;;;5098498;28;19978;-71
2022/05/26 10:48:44;;;;;;;;;;;21.50;86.80;;;;;;5095821;28;19920;-74
2022/05/26 10:51:18;;;;;;;;;;;21.50;87.10;;;;;;5102351;28;19912;-72
2022/05/26 10:53:48;;;;;;;;;;;21.50;86.50;;;;;;5101601;28;20006;-73
2022/05/26 10:56:28;;;;;;;;;;;21.40;86.00;;;;;;5073862;28;19935;-72
2022/05/26 10:59:03;;;;;;;;;;;21.20;85.50;;;;;;5099862;28;19923;-72
2022/05/26 11:01:31;;;;;;;;;;;21.00;85.70;;;;;;5103976;28;20110;-72
2022/05/26 11:04:03;;;;;;;;;;;20.90;85.20;;;;;;5091018;28;19927;-74
2022/05/26 11:06:32;;;;;;;;;;;20.80;85.30;;;;;;5093921;28;19912;-72
2022/05/26 11:08:57;;;;;;;;;;;20.90;85.80;;;;;;5090948;28;20346;-72
2022/05/26 11:11:36;;;;;;;;;;;20.90;85.00;;;;;;5091181;28;19966;-73
2022/05/26 11:17:23;;;;;;;;;;;21.00;82.30;;;;;;5090858;28;19919;-74
2022/05/26 11:19:54;;;;;;;;;;;21.10;82.70;;;;;;5072541;28;19912;-74
2022/05/26 11:22:20;;;;;;;;;;;21.30;82.90;;;;;;5090425;28;19915;-74
2022/05/26 11:24:47;;;;;;;;;;;21.70;83.30;;;;;;5099600;28;19919;-74
2022/05/26 11:27:16;;;;;;;;;;;22.10;83.10;;;;;;5108539;28;19911;-73
2022/05/26 11:30:05;;;;;;;;;;;22.40;82.50;;;;;;5100823;28;19912;-73
2022/05/26 11:38:08;;;;;;;;;;;23.30;79.20;;;;;;5110041;28;19942;-74
2022/05/26 11:40:54;;;;;;;;;;;23.30;78.30;;;;;;5106230;28;19947;-74
2022/05/26 11:43:23;;;;;;;;;;;23.20;78.50;;;;;;5099870;28;20293;-75
2022/05/26 11:45:50;;;;;;;;;;;23.00;78.30;;;;;;5101149;28;19950;-73
2022/05/26 11:48:31;;;;;;;;;;;22.90;78.50;;;;;;5101449;28;19928;-72
2022/05/26 11:50:58;;;;;;;;;;;22.90;78.80;;;;;;5097910;28;20026;-74
2022/05/26 11:53:30;;;;;;;;;;;22.80;78.10;;;;;;5099649;28;20367;-73
2022/05/26 11:56:04;;;;;;;;;;;22.60;77.60;;;;;;5078993;28;20355;-73
2022/05/26 11:58:29;;;;;;;;;;;22.60;78.40;;;;;;5102610;28;20002;-74
2022/05/26 12:01:13;;;;;;;;;;;22.80;78.30;;;;;;5091657;28;19999;-75
2022/05/26 12:04:05;;;;;;;;;;;22.90;78.20;;;;;;5090310;28;19907;-72
2022/05/26 12:06:34;;;;;;;;;;;22.90;75.20;;;;;;5102664;28;19920;-74
2022/05/26 12:09:12;;;;;;;;;;;22.70;74.80;;;;;;5110192;28;19995;-73
2022/05/26 12:11:51;;;;;;;;;;;22.40;74.10;;;;;;5110481;28;20343;-74
2022/05/26 12:14:36;;;;;;;;;;;22.20;74.40;;;;;;5110501;28;19931;-74
2022/05/26 12:17:21;;;;;;;;;;;22.30;74.30;;;;;;5040751;28;20304;-74
2022/05/26 12:19:46;;;;;;;;;;;22.60;74.90;;;;;;5109980;28;19923;-74
2022/05/26 12:22:25;;;;;;;;;;;23.00;74.40;;;;;;5109827;28;19919;-73
2022/05/26 12:24:51;;;;;;;;;;;23.30;74.30;;;;;;5091338;28;19908;-74
2022/05/26 12:27:36;;;;;;;;;;;23.70;74.20;;;;;;5108969;28;20259;-76
2022/05/26 12:30:04;;;;;;;;;;;24.00;73.30;;;;;;5089807;28;19919;-74
2022/05/26 12:32:34;;;;;;;;;;;24.30;72.80;;;;;;5099287;28;19953;-74
2022/05/26 12:34:59;;;;;;;;;;;24.60;72.10;;;;;;5109800;28;20010;-77
2022/05/26 12:37:48;;;;;;;;;;;24.60;71.00;;;;;;5110074;28;19998;-75
2022/05/26 12:40:22;;;;;;;;;;;24.60;70.80;;;;;;5100352;28;19970;-76
2022/05/26 12:43:08;;;;;;;;;;;24.50;70.70;;;;;;5089162;28;19908;-75
2022/05/26 12:45:53;;;;;;;;;;;24.60;70.60;;;;;;5087155;28;20335;-75
2022/05/26 12:48:32;;;;;;;;;;;24.70;70.90;;;;;;5088611;28;20260;-72
2022/05/26 12:51:04;;;;;;;;;;;24.90;70.00;;;;;;5095241;28;19912;-75
2022/05/26 12:53:32;;;;;;;;;;;24.90;69.20;;;;;;5099735;28;19918;-75
2022/05/26 12:56:16;;;;;;;;;;;24.90;69.80;;;;;;5077426;28;19994;-74
2022/05/26 12:58:50;;;;;;;;;;;24.80;68.70;;;;;;5103974;28;19952;-74
2022/05/26 13:01:19;;;;;;;;;;;24.60;68.10;;;;;;5096923;28;19965;-76
2022/05/26 13:03:48;;;;;;;;;;;24.50;68.10;;;;;;5077730;28;20011;-73
2022/05/26 13:06:22;;;;;;;;;;;24.50;68.20;;;;;;5098714;28;19918;-73
2022/05/26 13:08:53;;;;;;;;;;;24.40;66.20;;;;;;5097546;28;20188;-75
2022/05/26 13:11:20;;;;;;;;;;;24.20;66.70;;;;;;5080781;28;20285;-75
2022/05/26 13:13:48;;;;;;;;;;;24.20;67.30;;;;;;5099403;28;19926;-74
2022/05/26 13:16:30;;;;;;;;;;;24.20;66.60;;;;;;5099496;28;19907;-73
2022/05/26 13:19:05;;;;;;;;;;;24.10;65.60;;;;;;5078482;28;19916;-75
2022/05/26 13:21:31;;;;;;;;;;;23.90;65.90;;;;;;5101968;28;19915;-75
2022/05/26 13:23:56;;;;;;;;;;;23.80;65.70;;;;;;5097145;28;19931;-74
2022/05/26 13:26:23;;;;;;;;;;;23.70;65.50;;;;;;5102455;28;20326;-73
2022/05/26 13:28:53;;;;;;;;;;;23.60;66.00;;;;;;5097013;28;19912;-75
2022/05/26 13:34:04;;;;;;;;;;;23.80;65.70;;;;;;5090508;28;19915;-73
2022/05/26 13:36:37;;;;;;;;;;;23.90;66.10;;;;;;5100569;28;19950;-74
2022/05/26 13:39:23;;;;;;;;;;;24.10;66.00;;;;;;5097723;28;19983;-76
2022/05/26 13:41:51;;;;;;;;;;;24.10;65.20;;;;;;5098032;28;19913;-75
2022/05/26 13:44:32;;;;;;;;;;;24.10;64.70;;;;;;5095377;28;19912;-73
2022/05/26 13:46:58;;;;;;;;;;;24.00;65.30;;;;;;5092022;28;20021;-73
2022/05/26 13:49:38;;;;;;;;;;;24.00;65.10;;;;;;5095284;28;20654;-75
2022/05/26 13:52:09;;;;;;;;;;;23.90;64.60;;;;;;5077478;28;19988;-76
2022/05/26 13:54:41;;;;;;;;;;;23.80;63.60;;;;;;5095451;28;19919;-76
2022/05/26 13:57:12;;;;;;;;;;;23.50;63.30;;;;;;5086573;28;20019;-73
2022/05/26 13:59:47;;;;;;;;;;;23.30;62.80;;;;;;5073719;28;19912;-75
2022/05/26 14:02:25;;;;;;;;;;;23.00;62.80;;;;;;5094901;28;19916;-77
2022/05/26 14:05:09;;;;;;;;;;;22.80;63.70;;;;;;5090151;28;19953;-74
2022/05/26 14:07:35;;;;;;;;;;;22.70;63.80;;;;;;5088138;28;19938;-74
2022/05/26 14:10:06;;;;;;;;;;;22.60;63.80;;;;;;5088356;28;19912;-74
2022/05/26 14:12:32;;;;;;;;;;;22.40;63.10;;;;;;5088934;28;19912;-74
2022/05/26 14:14:57;;;;;;;;;;;22.10;62.70;;;;;;5087720;28;20011;-74
2022/05/26 14:17:34;;;;;;;;;;;21.90;62.00;;;;;;5069867;28;20346;-75
2022/05/26 14:20:18;;;;;;;;;;;21.60;61.80;;;;;;5069982;28;20586;-74
2022/05/26 14:22:47;;;;;;;;;;;21.40;61.70;;;;;;5088219;28;19915;-76
2022/05/26 14:25:21;;;;;;;;;;;21.20;62.00;;;;;;5087850;28;19917;-76
2022/05/26 14:27:52;;;;;;;;;;;21.10;62.20;;;;;;5088171;28;19914;-73
2022/05/26 14:30:30;;;;;;;;;;;21.00;62.20;;;;;;5087780;28;19962;-74
2022/05/26 14:32:55;;;;;;;;;;;21.00;62.30;;;;;;5087965;28;19977;-73
2022/05/26 14:35:21;;;;;;;;;;;21.00;62.10;;;;;;5088128;28;20355;-74
2022/05/26 14:37:48;;;;;;;;;;;21.00;61.70;;;;;;5087685;28;20270;-74
2022/05/26 14:40:14;;;;;;;;;;;21.00;61.70;;;;;;5087544;28;19920;-75
2022/05/26 14:42:41;;;;;;;;;;;21.00;61.80;;;;;;5087802;28;19913;-74
2022/05/26 14:45:09;;;;;;;;;;;21.00;61.80;;;;;;5088037;28;19916;-73
2022/05/26 14:47:35;;;;;;;;;;;21.00;61.80;;;;;;5089826;28;19939;-74
2022/05/26 14:50:01;;;;;;;;;;;21.00;61.30;;;;;;5100094;28;20350;-74
2022/05/26 14:52:28;;;;;;;;;;;21.00;61.20;;;;;;5099398;28;19916;-75
2022/05/26 14:57:38;;;;;;;;;;;21.00;61.00;;;;;;5102092;28;20283;-74
2022/05/26 15:00:07;;;;;;;;;;;21.00;61.40;;;;;;5099112;28;19908;-75
2022/05/26 15:02:33;;;;;;;;;;;21.10;61.40;;;;;;5098410;28;19912;-74
2022/05/26 15:04:59;;;;;;;;;;;21.10;60.60;;;;;;5097456;28;19948;-74
2022/05/26 15:07:24;;;;;;;;;;;21.00;60.50;;;;;;5100853;28;19915;-75
2022/05/26 15:09:50;;;;;;;;;;;21.00;60.90;;;;;;5099222;28;21248;-74
2022/05/26 15:12:16;;;;;;;;;;;21.10;60.40;;;;;;5081790;28;19923;-74
2022/05/26 15:14:42;;;;;;;;;;;21.00;59.80;;;;;;5102392;28;19912;-73